createdAt,value
2017-02-13T00:00:38.812Z,0
2017-02-13T00:01:39.528Z,0
2017-02-13T00:02:40.223Z,0
2017-02-13T00:03:40.932Z,0
2017-02-13T00:04:41.659Z,0
2017-02-13T00:05:42.356Z,0
2017-02-13T00:06:43.045Z,0
2017-02-13T00:07:43.759Z,0
2017-02-13T00:08:44.505Z,0
2017-02-13T00:09:45.219Z,0
2017-02-13T00:10:45.909Z,0
2017-02-13T00:11:46.615Z,0
2017-02-13T00:12:47.313Z,0
2017-02-13T00:13:48.023Z,0
2017-02-13T00:14:48.760Z,0
2017-02-13T00:15:49.490Z,0
2017-02-13T00:16:50.313Z,0
2017-02-13T00:17:51.051Z,0
2017-02-13T00:18:51.773Z,0
2017-02-13T00:19:52.474Z,0
2017-02-13T00:20:53.232Z,0
2017-02-13T00:21:53.954Z,0
2017-02-13T00:22:54.722Z,0
2017-02-13T00:23:55.413Z,0
2017-02-13T00:24:56.096Z,0
2017-02-13T00:25:56.821Z,0
2017-02-13T00:26:57.515Z,0
2017-02-13T00:27:58.209Z,0
2017-02-13T00:28:58.976Z,0
2017-02-13T00:29:59.702Z,0
2017-02-13T00:31:00.388Z,0
2017-02-13T00:32:01.136Z,0
2017-02-13T00:33:01.877Z,0
2017-02-13T00:34:02.585Z,0
2017-02-13T00:35:03.284Z,0
2017-02-13T00:36:03.981Z,0
2017-02-13T00:37:04.714Z,0
2017-02-13T00:38:05.566Z,0
2017-02-13T00:39:06.298Z,0
2017-02-13T00:40:07.024Z,0
2017-02-13T00:41:07.748Z,0
2017-02-13T00:42:08.457Z,0
2017-02-13T00:43:09.158Z,0
2017-02-13T00:44:09.982Z,0
2017-02-13T00:45:10.694Z,0
2017-02-13T00:46:12.238Z,0
2017-02-13T00:47:13.041Z,0
2017-02-13T00:48:13.835Z,0
2017-02-13T00:49:14.591Z,0
2017-02-13T00:50:15.346Z,0
2017-02-13T00:51:16.072Z,0
2017-02-13T00:52:16.791Z,0
2017-02-13T00:53:17.522Z,0
2017-02-13T00:54:18.310Z,0
2017-02-13T00:55:19.023Z,0
2017-02-13T00:56:19.738Z,0
2017-02-13T00:57:20.467Z,0
2017-02-13T00:58:21.204Z,0
2017-02-13T00:59:21.925Z,0
2017-02-13T01:00:22.623Z,0
2017-02-13T01:01:23.344Z,0
2017-02-13T01:02:24.050Z,0
2017-02-13T01:03:24.813Z,0
2017-02-13T01:04:25.593Z,0
2017-02-13T01:05:26.288Z,0
2017-02-13T01:06:27.016Z,0
2017-02-13T01:07:27.813Z,0
2017-02-13T01:08:28.511Z,0
2017-02-13T01:09:29.208Z,0
2017-02-13T01:10:29.961Z,0
2017-02-13T01:11:30.672Z,0
2017-02-13T01:12:31.385Z,0
2017-02-13T01:13:32.107Z,0
2017-02-13T01:14:32.824Z,0
2017-02-13T01:15:33.525Z,0
2017-02-13T01:16:34.248Z,0
2017-02-13T01:17:34.959Z,0
2017-02-13T01:18:35.667Z,0
2017-02-13T01:19:36.358Z,0
2017-02-13T01:20:37.041Z,0
2017-02-13T01:21:37.730Z,0
2017-02-13T01:22:38.430Z,0
2017-02-13T01:23:39.130Z,0
2017-02-13T01:24:39.831Z,0
2017-02-13T01:25:40.525Z,0
2017-02-13T01:26:41.245Z,0
2017-02-13T01:27:41.949Z,0
2017-02-13T01:28:42.661Z,0
2017-02-13T01:29:43.369Z,0
2017-02-13T01:30:44.109Z,0
2017-02-13T01:31:44.955Z,0
2017-02-13T01:32:45.669Z,0
2017-02-13T01:33:46.385Z,0
2017-02-13T01:34:47.076Z,0
2017-02-13T01:35:47.830Z,0
2017-02-13T01:36:48.518Z,0
2017-02-13T01:37:49.239Z,0
2017-02-13T01:38:50.045Z,0
2017-02-13T01:39:50.755Z,0
2017-02-13T01:40:51.445Z,0
2017-02-13T01:41:52.144Z,0
2017-02-13T01:42:52.873Z,0
2017-02-13T01:43:53.570Z,0
2017-02-13T01:44:54.277Z,0
2017-02-13T01:45:54.986Z,0
2017-02-13T01:46:55.706Z,0
2017-02-13T01:47:56.400Z,0
2017-02-13T01:48:57.094Z,0
2017-02-13T01:49:57.814Z,0
2017-02-13T01:50:58.521Z,0
2017-02-13T01:51:59.249Z,0
2017-02-13T01:52:59.925Z,0
2017-02-13T01:54:00.641Z,0
2017-02-13T01:55:01.362Z,0
2017-02-13T01:56:02.049Z,0
2017-02-13T01:57:02.760Z,0
2017-02-13T01:58:03.455Z,0
2017-02-13T01:59:04.144Z,0
2017-02-13T02:00:04.860Z,0
2017-02-13T02:01:05.547Z,0
2017-02-13T02:02:06.229Z,0
2017-02-13T02:03:06.934Z,0
2017-02-13T02:04:07.677Z,0
2017-02-13T02:05:08.549Z,0
2017-02-13T02:06:09.249Z,0
2017-02-13T02:07:09.977Z,0
2017-02-13T02:08:10.674Z,0
2017-02-13T02:09:11.369Z,0
2017-02-13T02:10:12.081Z,0
2017-02-13T02:11:12.786Z,0
2017-02-13T02:12:13.489Z,0
2017-02-13T02:13:14.219Z,0
2017-02-13T02:14:14.975Z,0
2017-02-13T02:15:15.679Z,0
2017-02-13T02:16:16.457Z,0
2017-02-13T02:17:17.154Z,0
2017-02-13T02:18:17.853Z,0
2017-02-13T02:19:18.591Z,0
2017-02-13T02:20:19.324Z,0
2017-02-13T02:21:20.026Z,0
2017-02-13T02:22:20.708Z,0
2017-02-13T02:23:21.448Z,0
2017-02-13T02:24:22.151Z,0
2017-02-13T02:25:22.860Z,0
2017-02-13T02:26:23.575Z,0
2017-02-13T02:27:24.286Z,0
2017-02-13T02:28:24.981Z,0
2017-02-13T02:29:25.690Z,0
2017-02-13T02:30:26.424Z,0
2017-02-13T02:31:27.127Z,0
2017-02-13T02:32:27.865Z,0
2017-02-13T02:33:28.562Z,0
2017-02-13T02:34:29.255Z,0
2017-02-13T02:35:29.936Z,0
2017-02-13T02:36:30.633Z,0
2017-02-13T02:37:31.322Z,0
2017-02-13T02:38:32.029Z,0
2017-02-13T02:39:32.743Z,0
2017-02-13T02:40:33.432Z,0
2017-02-13T02:41:34.133Z,0
2017-02-13T02:42:34.883Z,0
2017-02-13T02:43:35.619Z,0
2017-02-13T02:44:36.319Z,0
2017-02-13T02:45:37.077Z,0
2017-02-13T02:46:37.774Z,0
2017-02-13T02:47:38.493Z,0
2017-02-13T02:48:39.190Z,0
2017-02-13T02:49:39.921Z,0
2017-02-13T02:50:40.659Z,0
2017-02-13T02:51:41.347Z,0
2017-02-13T02:52:42.033Z,0
2017-02-13T02:53:42.739Z,0
2017-02-13T02:54:43.417Z,0
2017-02-13T02:55:44.107Z,0
2017-02-13T02:56:44.806Z,0
2017-02-13T02:57:45.511Z,0
2017-02-13T02:58:46.279Z,0
2017-02-13T02:59:46.976Z,0
2017-02-13T03:00:47.691Z,0
2017-02-13T03:01:48.418Z,0
2017-02-13T03:02:49.102Z,0
2017-02-13T03:03:49.814Z,0
2017-02-13T03:04:50.516Z,0
2017-02-13T03:05:51.220Z,0
2017-02-13T03:06:51.913Z,0
2017-02-13T03:07:52.617Z,0
2017-02-13T03:08:53.331Z,0
2017-02-13T03:09:54.037Z,0
2017-02-13T03:10:54.749Z,0
2017-02-13T03:11:55.442Z,0
2017-02-13T03:12:56.151Z,0
2017-02-13T03:13:56.840Z,0
2017-02-13T03:14:57.541Z,0
2017-02-13T03:15:58.284Z,0
2017-02-13T03:16:58.997Z,0
2017-02-13T03:17:59.717Z,0
2017-02-13T03:19:00.438Z,0
2017-02-13T03:20:01.164Z,0
2017-02-13T03:21:01.849Z,0
2017-02-13T03:22:02.561Z,0
2017-02-13T03:23:03.280Z,0
2017-02-13T03:24:03.992Z,0
2017-02-13T03:25:04.689Z,0
2017-02-13T03:26:05.402Z,0
2017-02-13T03:27:06.091Z,0
2017-02-13T03:28:06.791Z,0
2017-02-13T03:29:07.493Z,0
2017-02-13T03:30:08.214Z,0
2017-02-13T03:31:08.930Z,0
2017-02-13T03:32:09.635Z,0
2017-02-13T03:33:10.328Z,0
2017-02-13T03:34:11.041Z,0
2017-02-13T03:35:11.749Z,0
2017-02-13T03:36:12.438Z,0
2017-02-13T03:37:13.109Z,0
2017-02-13T03:38:13.826Z,0
2017-02-13T03:39:14.565Z,0
2017-02-13T03:40:15.288Z,0
2017-02-13T03:41:15.998Z,0
2017-02-13T03:42:16.736Z,0
2017-02-13T03:43:17.410Z,0
2017-02-13T03:44:18.108Z,0
2017-02-13T03:45:18.813Z,0
2017-02-13T03:46:19.542Z,0
2017-02-13T03:47:20.248Z,0
2017-02-13T03:48:20.966Z,0
2017-02-13T03:49:21.678Z,0
2017-02-13T03:50:22.416Z,0
2017-02-13T03:51:23.132Z,0
2017-02-13T03:52:23.812Z,0
2017-02-13T03:53:24.532Z,0
2017-02-13T03:54:25.208Z,0
2017-02-13T03:55:25.882Z,0
2017-02-13T03:56:26.583Z,0
2017-02-13T03:57:27.398Z,0
2017-02-13T03:58:28.117Z,0
2017-02-13T03:59:28.833Z,0
2017-02-13T04:00:29.538Z,0
2017-02-13T04:01:30.240Z,0
2017-02-13T04:02:30.949Z,0
2017-02-13T04:03:31.660Z,0
2017-02-13T04:04:32.668Z,0
2017-02-13T04:05:33.366Z,0
2017-02-13T04:06:34.152Z,0
2017-02-13T04:07:34.855Z,0
2017-02-13T04:08:35.538Z,0
2017-02-13T04:09:36.262Z,0
2017-02-13T04:10:36.982Z,0
2017-02-13T04:11:37.696Z,0
2017-02-13T04:12:38.409Z,0
2017-02-13T04:13:39.118Z,0
2017-02-13T04:14:39.825Z,0
2017-02-13T04:15:40.525Z,0
2017-02-13T04:16:41.227Z,0
2017-02-13T04:17:41.917Z,0
2017-02-13T04:18:42.639Z,0
2017-02-13T04:19:43.305Z,0
2017-02-13T04:20:44.019Z,0
2017-02-13T04:21:44.784Z,0
2017-02-13T04:22:45.509Z,0
2017-02-13T04:23:46.214Z,0
2017-02-13T04:24:46.898Z,0
2017-02-13T04:25:47.582Z,0
2017-02-13T04:26:48.271Z,0
2017-02-13T04:27:48.980Z,0
2017-02-13T04:28:49.694Z,0
2017-02-13T04:29:50.383Z,0
2017-02-13T04:30:51.079Z,0
2017-02-13T04:31:51.777Z,0
2017-02-13T04:32:52.475Z,0
2017-02-13T04:33:53.204Z,0
2017-02-13T04:34:53.893Z,0
2017-02-13T04:35:54.610Z,0
2017-02-13T04:36:55.293Z,0
2017-02-13T04:37:56.019Z,0
2017-02-13T04:38:56.693Z,0
2017-02-13T04:39:57.398Z,0
2017-02-13T04:40:58.120Z,0
2017-02-13T04:41:58.810Z,0
2017-02-13T04:42:59.510Z,0
2017-02-13T04:44:00.260Z,0
2017-02-13T04:45:00.973Z,0
2017-02-13T04:46:01.695Z,0
2017-02-13T04:47:02.405Z,0
2017-02-13T04:48:03.130Z,0
2017-02-13T04:49:03.848Z,0
2017-02-13T04:50:04.545Z,0
2017-02-13T04:51:05.224Z,0
2017-02-13T04:52:05.913Z,0
2017-02-13T04:53:06.619Z,0
2017-02-13T04:54:07.333Z,0
2017-02-13T04:55:08.015Z,0
2017-02-13T04:56:08.717Z,0
2017-02-13T04:57:09.398Z,0
2017-02-13T04:58:10.131Z,0
2017-02-13T04:59:10.820Z,0
2017-02-13T05:00:11.518Z,0
2017-02-13T05:01:12.216Z,0
2017-02-13T05:02:12.913Z,0
2017-02-13T05:03:13.593Z,0
2017-02-13T05:04:14.286Z,0
2017-02-13T05:05:14.988Z,0
2017-02-13T05:06:15.708Z,0
2017-02-13T05:07:16.385Z,0
2017-02-13T05:08:17.095Z,0
2017-02-13T05:09:17.821Z,0
2017-02-13T05:10:18.528Z,0
2017-02-13T05:11:19.219Z,0
2017-02-13T05:12:19.916Z,0
2017-02-13T05:13:20.614Z,0
2017-02-13T05:14:21.298Z,0
2017-02-13T05:15:22.012Z,0
2017-02-13T05:16:22.708Z,0
2017-02-13T05:17:23.434Z,0
2017-02-13T05:18:24.131Z,0
2017-02-13T05:19:24.835Z,0
2017-02-13T05:20:26.425Z,0
2017-02-13T05:21:27.123Z,0
2017-02-13T05:22:27.851Z,0
2017-02-13T05:23:28.556Z,0
2017-02-13T05:24:29.280Z,0
2017-02-13T05:25:30.010Z,0
2017-02-13T05:26:30.702Z,0
2017-02-13T05:27:31.404Z,0
2017-02-13T05:28:32.097Z,0
2017-02-13T05:29:32.785Z,0
2017-02-13T05:30:33.476Z,0
2017-02-13T05:31:34.157Z,0
2017-02-13T05:32:34.882Z,0
2017-02-13T05:33:35.575Z,0
2017-02-13T05:34:36.269Z,0
2017-02-13T05:35:36.986Z,0
2017-02-13T05:36:37.706Z,0
2017-02-13T05:37:38.431Z,0
2017-02-13T05:38:39.138Z,0
2017-02-13T05:39:39.813Z,0
2017-02-13T05:40:40.503Z,0
2017-02-13T05:41:41.227Z,0
2017-02-13T05:42:41.910Z,0
2017-02-13T05:43:42.599Z,0
2017-02-13T05:44:43.302Z,0
2017-02-13T05:45:43.990Z,0
2017-02-13T05:46:44.691Z,0
2017-02-13T05:47:45.405Z,0
2017-02-13T05:48:46.100Z,0
2017-02-13T05:49:46.814Z,0
2017-02-13T05:50:47.486Z,0
2017-02-13T05:51:48.166Z,0
2017-02-13T05:52:48.872Z,0
2017-02-13T05:53:49.569Z,0
2017-02-13T05:54:50.269Z,0
2017-02-13T05:55:50.970Z,0
2017-02-13T05:56:51.676Z,0
2017-02-13T05:57:52.383Z,0
2017-02-13T05:58:53.077Z,0
2017-02-13T05:59:53.769Z,0
2017-02-13T06:00:54.476Z,0
2017-02-13T06:01:55.237Z,0
2017-02-13T06:02:55.942Z,0
2017-02-13T06:03:56.659Z,0
2017-02-13T06:04:57.354Z,4
2017-02-13T06:05:58.051Z,4
2017-02-13T06:06:58.743Z,0
2017-02-13T06:07:59.437Z,4
2017-02-13T06:09:00.142Z,4
2017-02-13T06:10:00.817Z,4
2017-02-13T06:11:01.550Z,4
2017-02-13T06:12:02.299Z,4
2017-02-13T06:13:03.019Z,4
2017-02-13T06:14:03.706Z,8
2017-02-13T06:15:04.413Z,8
2017-02-13T06:16:05.128Z,12
2017-02-13T06:17:05.814Z,12
2017-02-13T06:18:06.483Z,12
2017-02-13T06:19:07.191Z,12
2017-02-13T06:20:07.878Z,16
2017-02-13T06:21:08.569Z,20
2017-02-13T06:22:09.343Z,24
2017-02-13T06:23:10.050Z,28
2017-02-13T06:24:10.829Z,32
2017-02-13T06:25:11.519Z,40
2017-02-13T06:26:12.531Z,48
2017-02-13T06:27:13.216Z,52
2017-02-13T06:28:13.921Z,60
2017-02-13T06:29:14.645Z,68
2017-02-13T06:30:15.358Z,80
2017-02-13T06:31:16.031Z,92
2017-02-13T06:32:16.708Z,104
2017-02-13T06:33:17.381Z,116
2017-02-13T06:34:18.059Z,132
2017-02-13T06:35:18.724Z,148
2017-02-13T06:36:19.403Z,164
2017-02-13T06:37:20.107Z,180
2017-02-13T06:38:20.816Z,200
2017-02-13T06:39:21.525Z,220
2017-02-13T06:40:22.252Z,240
2017-02-13T06:41:22.974Z,264
2017-02-13T06:42:23.656Z,288
2017-02-13T06:43:24.358Z,312
2017-02-13T06:44:25.040Z,336
2017-02-13T06:45:25.755Z,364
2017-02-13T06:46:26.433Z,392
2017-02-13T06:47:27.172Z,420
2017-02-13T06:48:27.892Z,452
2017-02-13T06:49:28.601Z,488
2017-02-13T06:50:29.285Z,520
2017-02-13T06:51:29.982Z,552
2017-02-13T06:52:30.671Z,588
2017-02-13T06:53:31.388Z,624
2017-02-13T06:54:32.101Z,664
2017-02-13T06:55:32.809Z,704
2017-02-13T06:56:33.511Z,748
2017-02-13T06:57:34.236Z,792
2017-02-13T06:58:34.949Z,836
2017-02-13T06:59:35.635Z,884
2017-02-13T07:00:36.353Z,928
2017-02-13T07:01:37.036Z,976
2017-02-13T07:02:37.712Z,1028
2017-02-13T07:03:38.417Z,1080
2017-02-13T07:04:39.116Z,1132
2017-02-13T07:05:39.826Z,1184
2017-02-13T07:06:40.539Z,1240
2017-02-13T07:07:41.234Z,1292
2017-02-13T07:08:41.933Z,1352
2017-02-13T07:09:42.611Z,1412
2017-02-13T07:10:43.323Z,1472
2017-02-13T07:11:44.044Z,1532
2017-02-13T07:12:44.770Z,1592
2017-02-13T07:13:45.497Z,1652
2017-02-13T07:14:46.199Z,1708
2017-02-13T07:15:46.911Z,1772
2017-02-13T07:16:47.598Z,1840
2017-02-13T07:17:48.300Z,1904
2017-02-13T07:18:48.987Z,1960
2017-02-13T07:19:49.718Z,2032
2017-02-13T07:20:50.422Z,2100
2017-02-13T07:21:51.091Z,2164
2017-02-13T07:22:51.786Z,2236
2017-02-13T07:23:52.499Z,2304
2017-02-13T07:24:53.212Z,2376
2017-02-13T07:25:53.901Z,2444
2017-02-13T07:26:54.603Z,2524
2017-02-13T07:27:55.285Z,2600
2017-02-13T07:28:55.998Z,2664
2017-02-13T07:29:56.696Z,2728
2017-02-13T07:30:57.379Z,2800
2017-02-13T07:31:58.091Z,2876
2017-02-13T07:32:58.790Z,2948
2017-02-13T07:33:59.514Z,3012
2017-02-13T07:35:00.228Z,3068
2017-02-13T07:36:00.942Z,3128
2017-02-13T07:37:01.651Z,3188
2017-02-13T07:38:02.340Z,3248
2017-02-13T07:39:03.082Z,3320
2017-02-13T07:40:03.793Z,3400
2017-02-13T07:41:04.482Z,3464
2017-02-13T07:42:05.190Z,3520
2017-02-13T07:43:05.899Z,3580
2017-02-13T07:44:06.595Z,3652
2017-02-13T07:45:07.358Z,3720
2017-02-13T07:46:08.076Z,3788
2017-02-13T07:47:08.788Z,3864
2017-02-13T07:48:09.493Z,3932
2017-02-13T07:49:10.225Z,3996
2017-02-13T07:50:10.927Z,4056
2017-02-13T07:51:11.654Z,4132
2017-02-13T07:52:12.450Z,4204
2017-02-13T07:53:13.105Z,4304
2017-02-13T07:54:13.809Z,4540
2017-02-13T07:55:14.525Z,4904
2017-02-13T07:56:15.214Z,5296
2017-02-13T07:57:15.936Z,5508
2017-02-13T07:58:16.644Z,5648
2017-02-13T07:59:17.353Z,5712
2017-02-13T08:00:18.054Z,5736
2017-02-13T08:01:18.753Z,5916
2017-02-13T08:02:19.473Z,6028
2017-02-13T08:03:20.161Z,5752
2017-02-13T08:04:20.847Z,5772
2017-02-13T08:05:21.546Z,5788
2017-02-13T08:06:22.245Z,5824
2017-02-13T08:07:22.953Z,5892
2017-02-13T08:08:23.672Z,6000
2017-02-13T08:09:24.344Z,6040
2017-02-13T08:10:25.055Z,5952
2017-02-13T08:11:25.757Z,5800
2017-02-13T08:12:26.465Z,5960
2017-02-13T08:13:27.173Z,6144
2017-02-13T08:14:27.858Z,5868
2017-02-13T08:15:28.573Z,5584
2017-02-13T08:16:29.294Z,5732
2017-02-13T08:17:29.990Z,6036
2017-02-13T08:18:30.694Z,6452
2017-02-13T08:19:31.447Z,6212
2017-02-13T08:20:32.196Z,6240
2017-02-13T08:21:32.956Z,6484
2017-02-13T08:22:33.686Z,6596
2017-02-13T08:23:34.385Z,6612
2017-02-13T08:24:35.108Z,7008
2017-02-13T08:25:35.799Z,7204
2017-02-13T08:26:36.549Z,6968
2017-02-13T08:27:37.274Z,6320
2017-02-13T08:28:38.175Z,6448
2017-02-13T08:29:38.894Z,7596
2017-02-13T08:30:39.629Z,8572
2017-02-13T08:31:40.323Z,8896
2017-02-13T08:32:41.012Z,8264
2017-02-13T08:33:41.721Z,6944
2017-02-13T08:34:42.420Z,7464
2017-02-13T08:35:43.143Z,7696
2017-02-13T08:36:43.867Z,7012
2017-02-13T08:37:44.592Z,7648
2017-02-13T08:38:45.286Z,7932
2017-02-13T08:39:45.993Z,7764
2017-02-13T08:40:46.738Z,7700
2017-02-13T08:41:47.639Z,8320
2017-02-13T08:42:48.437Z,8572
2017-02-13T08:43:49.146Z,7896
2017-02-13T08:44:49.858Z,8132
2017-02-13T08:45:50.574Z,7824
2017-02-13T08:46:51.296Z,8760
2017-02-13T08:47:52.038Z,9516
2017-02-13T08:48:52.778Z,9452
2017-02-13T08:49:53.474Z,10104
2017-02-13T08:50:54.189Z,10436
2017-02-13T08:51:54.892Z,10672
2017-02-13T08:52:55.598Z,10824
2017-02-13T08:53:56.310Z,10328
2017-02-13T08:54:57.016Z,10264
2017-02-13T08:55:57.745Z,10852
2017-02-13T08:56:58.451Z,11716
2017-02-13T08:57:59.339Z,12108
2017-02-13T08:59:00.070Z,12120
2017-02-13T09:00:00.769Z,12164
2017-02-13T09:01:01.477Z,12948
2017-02-13T09:02:02.170Z,13428
2017-02-13T09:03:02.870Z,13968
2017-02-13T09:04:03.613Z,13716
2017-02-13T09:05:04.319Z,14044
2017-02-13T09:06:05.006Z,13956
2017-02-13T09:07:05.720Z,13756
2017-02-13T09:08:06.454Z,13360
2017-02-13T09:09:07.177Z,13568
2017-02-13T09:10:07.893Z,14264
2017-02-13T09:11:08.626Z,14896
2017-02-13T09:12:09.367Z,14996
2017-02-13T09:13:10.075Z,14200
2017-02-13T09:14:10.768Z,10140
2017-02-13T09:15:11.477Z,6908
2017-02-13T09:16:12.196Z,6776
2017-02-13T09:17:12.905Z,6728
2017-02-13T09:18:13.620Z,6712
2017-02-13T09:19:14.312Z,6692
2017-02-13T09:20:15.037Z,6652
2017-02-13T09:21:15.749Z,6636
2017-02-13T09:22:16.453Z,6676
2017-02-13T09:23:17.160Z,6660
2017-02-13T09:24:17.856Z,6652
2017-02-13T09:25:18.584Z,6668
2017-02-13T09:26:19.294Z,6648
2017-02-13T09:27:20.014Z,6624
2017-02-13T09:28:20.726Z,6600
2017-02-13T09:29:21.416Z,6604
2017-02-13T09:30:22.130Z,6616
2017-02-13T09:31:22.861Z,6580
2017-02-13T09:32:23.554Z,6592
2017-02-13T09:33:24.284Z,6600
2017-02-13T09:34:25.020Z,6596
2017-02-13T09:35:25.733Z,6612
2017-02-13T09:36:26.434Z,6588
2017-02-13T09:37:27.169Z,6572
2017-02-13T09:38:27.896Z,6600
2017-02-13T09:39:28.608Z,6596
2017-02-13T09:40:29.330Z,6600
2017-02-13T09:41:30.027Z,6560
2017-02-13T09:42:30.732Z,6576
2017-02-13T09:43:31.432Z,6560
2017-02-13T09:44:32.135Z,6520
2017-02-13T09:45:32.833Z,6536
2017-02-13T09:46:33.575Z,6540
2017-02-13T09:47:34.283Z,6544
2017-02-13T09:48:34.998Z,6520
2017-02-13T09:49:35.733Z,6528
2017-02-13T09:50:36.457Z,6480
2017-02-13T09:51:37.181Z,6464
2017-02-13T09:52:37.899Z,6456
2017-02-13T09:53:38.627Z,6496
2017-02-13T09:54:39.342Z,6504
2017-02-13T09:55:40.042Z,6508
2017-02-13T09:56:40.781Z,6484
2017-02-13T09:57:41.488Z,6404
2017-02-13T09:58:42.187Z,6416
2017-02-13T09:59:42.918Z,6388
2017-02-13T10:00:43.637Z,6380
2017-02-13T10:01:44.355Z,6372
2017-02-13T10:02:45.076Z,6352
2017-02-13T10:03:45.768Z,6348
2017-02-13T10:04:46.485Z,6316
2017-02-13T10:05:47.212Z,6252
2017-02-13T10:06:47.909Z,6220
2017-02-13T10:07:48.604Z,6224
2017-02-13T10:08:49.320Z,6228
2017-02-13T10:09:50.042Z,6240
2017-02-13T10:10:50.734Z,6212
2017-02-13T10:11:51.448Z,6168
2017-02-13T10:12:52.155Z,6116
2017-02-13T10:13:52.857Z,6096
2017-02-13T10:14:53.576Z,6068
2017-02-13T10:15:54.322Z,6024
2017-02-13T10:16:55.052Z,6020
2017-02-13T10:17:55.812Z,6072
2017-02-13T10:18:56.577Z,6036
2017-02-13T10:19:57.336Z,6060
2017-02-13T10:20:58.062Z,6024
2017-02-13T10:21:58.777Z,6004
2017-02-13T10:22:59.472Z,6004
2017-02-13T10:24:00.175Z,6016
2017-02-13T10:25:00.890Z,6000
2017-02-13T10:26:01.579Z,5972
2017-02-13T10:27:02.284Z,5984
2017-02-13T10:28:03.022Z,5980
2017-02-13T10:29:03.739Z,5956
2017-02-13T10:30:04.452Z,5892
2017-02-13T10:31:05.151Z,5884
2017-02-13T10:32:05.866Z,5880
2017-02-13T10:33:06.576Z,5884
2017-02-13T10:34:07.267Z,5848
2017-02-13T10:35:08.002Z,5808
2017-02-13T10:36:08.746Z,5848
2017-02-13T10:37:09.473Z,5812
2017-02-13T10:38:10.179Z,5816
2017-02-13T10:39:10.909Z,5816
2017-02-13T10:40:11.626Z,5812
2017-02-13T10:41:12.320Z,5800
2017-02-13T10:42:13.018Z,5792
2017-02-13T10:43:13.719Z,5808
2017-02-13T10:44:14.412Z,5800
2017-02-13T10:45:15.126Z,5800
2017-02-13T10:46:15.836Z,5792
2017-02-13T10:47:16.557Z,5732
2017-02-13T10:48:17.269Z,5708
2017-02-13T10:49:18.007Z,5680
2017-02-13T10:50:18.715Z,5672
2017-02-13T10:51:19.443Z,5652
2017-02-13T10:52:20.135Z,5680
2017-02-13T10:53:20.852Z,5644
2017-02-13T10:54:21.621Z,5636
2017-02-13T10:55:22.334Z,5604
2017-02-13T10:56:23.079Z,5556
2017-02-13T10:57:23.789Z,5564
2017-02-13T10:58:24.477Z,5568
2017-02-13T10:59:25.193Z,5532
2017-02-13T11:00:25.897Z,5536
2017-02-13T11:01:26.640Z,5492
2017-02-13T11:02:27.324Z,5480
2017-02-13T11:03:28.138Z,5484
2017-02-13T11:04:28.883Z,5488
2017-02-13T11:05:29.604Z,5488
2017-02-13T11:06:30.311Z,5480
2017-02-13T11:07:31.030Z,5472
2017-02-13T11:08:31.749Z,5448
2017-02-13T11:09:32.469Z,5432
2017-02-13T11:10:33.191Z,5412
2017-02-13T11:11:33.915Z,5400
2017-02-13T11:12:34.658Z,5376
2017-02-13T11:13:35.381Z,5400
2017-02-13T11:14:36.094Z,5440
2017-02-13T11:15:36.828Z,5388
2017-02-13T11:16:37.537Z,5388
2017-02-13T11:17:38.240Z,5352
2017-02-13T11:18:38.947Z,5340
2017-02-13T11:19:39.672Z,5320
2017-02-13T11:20:40.393Z,5300
2017-02-13T11:21:41.121Z,5308
2017-02-13T11:22:41.844Z,5300
2017-02-13T11:23:42.609Z,5292
2017-02-13T11:24:43.326Z,5316
2017-02-13T11:25:44.053Z,5288
2017-02-13T11:26:44.781Z,5268
2017-02-13T11:27:45.483Z,5248
2017-02-13T11:28:46.216Z,5208
2017-02-13T11:29:46.946Z,5184
2017-02-13T11:30:47.626Z,5176
2017-02-13T11:31:48.386Z,5168
2017-02-13T11:32:49.092Z,5136
2017-02-13T11:33:49.814Z,5116
2017-02-13T11:34:50.526Z,5148
2017-02-13T11:35:51.259Z,5144
2017-02-13T11:36:52.091Z,5128
2017-02-13T11:37:52.890Z,5132
2017-02-13T11:38:53.598Z,5108
2017-02-13T11:39:54.306Z,5084
2017-02-13T11:40:55.007Z,5072
2017-02-13T11:41:55.714Z,5044
2017-02-13T11:42:56.426Z,5060
2017-02-13T11:43:57.161Z,5088
2017-02-13T11:44:57.895Z,5048
2017-02-13T11:45:58.632Z,5048
2017-02-13T11:46:59.338Z,5052
2017-02-13T11:48:00.082Z,5036
2017-02-13T11:49:00.808Z,5040
2017-02-13T11:50:01.550Z,5048
2017-02-13T11:51:02.263Z,5032
2017-02-13T11:52:02.969Z,5052
2017-02-13T11:53:03.674Z,5068
2017-02-13T11:54:04.387Z,5056
2017-02-13T11:55:05.075Z,5108
2017-02-13T11:56:05.821Z,5144
2017-02-13T11:57:06.529Z,5160
2017-02-13T11:58:07.243Z,5168
2017-02-13T11:59:07.935Z,5192
2017-02-13T12:00:08.655Z,5192
2017-02-13T12:01:09.372Z,5224
2017-02-13T12:02:10.096Z,5264
2017-02-13T12:03:10.796Z,5196
2017-02-13T12:04:11.492Z,5196
2017-02-13T12:05:12.196Z,5216
2017-02-13T12:06:12.910Z,5196
2017-02-13T12:07:13.609Z,5144
2017-02-13T12:08:14.334Z,5144
2017-02-13T12:09:15.054Z,5176
2017-02-13T12:10:15.743Z,5132
2017-02-13T12:11:16.486Z,5176
2017-02-13T12:12:17.179Z,5200
2017-02-13T12:13:17.895Z,5172
2017-02-13T12:14:18.595Z,5168
2017-02-13T12:15:19.342Z,5152
2017-02-13T12:16:20.066Z,5112
2017-02-13T12:17:20.841Z,5068
2017-02-13T12:18:21.519Z,5000
2017-02-13T12:19:22.218Z,4932
2017-02-13T12:20:22.914Z,4872
2017-02-13T12:21:23.622Z,4832
2017-02-13T12:22:24.303Z,4840
2017-02-13T12:23:25.028Z,4808
2017-02-13T12:24:25.743Z,4720
2017-02-13T12:25:26.468Z,4648
2017-02-13T12:26:27.177Z,4576
2017-02-13T12:27:27.925Z,4532
2017-02-13T12:28:28.626Z,4468
2017-02-13T12:29:29.322Z,4448
2017-02-13T12:30:30.040Z,4392
2017-02-13T12:31:30.743Z,4340
2017-02-13T12:32:31.463Z,4308
2017-02-13T12:33:32.251Z,4312
2017-02-13T12:34:32.981Z,4284
2017-02-13T12:35:33.690Z,4264
2017-02-13T12:36:34.411Z,4212
2017-02-13T12:37:35.110Z,4180
2017-02-13T12:38:35.825Z,4180
2017-02-13T12:39:36.581Z,4208
2017-02-13T12:40:37.313Z,4184
2017-02-13T12:41:38.057Z,4204
2017-02-13T12:42:38.741Z,4204
2017-02-13T12:43:39.444Z,4212
2017-02-13T12:45:31.879Z,4204
2017-02-13T12:45:41.012Z,4212
2017-02-13T12:46:41.706Z,4180
2017-02-13T12:47:42.388Z,4140
2017-02-13T12:48:43.100Z,4096
2017-02-13T12:49:43.813Z,4088
2017-02-13T12:50:44.502Z,4084
2017-02-13T12:51:45.250Z,4068
2017-02-13T12:52:45.961Z,4052
2017-02-13T12:53:46.674Z,4028
2017-02-13T12:54:47.400Z,4156
2017-02-13T12:55:48.133Z,4272
2017-02-13T12:56:48.845Z,4608
2017-02-13T12:57:49.571Z,5516
2017-02-13T12:58:50.301Z,5376
2017-02-13T12:59:51.008Z,5380
2017-02-13T13:00:51.732Z,5064
2017-02-13T13:01:52.446Z,4392
2017-02-13T13:02:53.157Z,4368
2017-02-13T13:03:53.845Z,4152
2017-02-13T13:04:54.639Z,3960
2017-02-13T13:05:55.399Z,3912
2017-02-13T13:06:56.115Z,3900
2017-02-13T13:07:56.805Z,3892
2017-02-13T13:08:57.514Z,3864
2017-02-13T13:09:58.248Z,3832
2017-02-13T13:10:58.958Z,3820
2017-02-13T13:11:59.695Z,3844
2017-02-13T13:13:00.387Z,3840
2017-02-13T13:14:01.094Z,3828
2017-02-13T13:15:01.811Z,3828
2017-02-13T13:16:02.502Z,3844
2017-02-13T13:17:03.201Z,3840
2017-02-13T13:18:03.925Z,3824
2017-02-13T13:19:04.664Z,3840
2017-02-13T13:20:05.364Z,3824
2017-02-13T13:21:06.063Z,3796
2017-02-13T13:22:06.783Z,3784
2017-02-13T13:23:07.494Z,3788
2017-02-13T13:24:08.235Z,3780
2017-02-13T13:25:08.982Z,3764
2017-02-13T13:26:09.727Z,3892
2017-02-13T13:27:10.445Z,4044
2017-02-13T13:28:11.156Z,4104
2017-02-13T13:29:11.856Z,4116
2017-02-13T13:30:12.548Z,4052
2017-02-13T13:31:13.250Z,3844
2017-02-13T13:32:14.000Z,3660
2017-02-13T13:33:14.684Z,3608
2017-02-13T13:34:15.383Z,3588
2017-02-13T13:35:16.128Z,3572
2017-02-13T13:36:16.861Z,3556
2017-02-13T13:37:17.573Z,3544
2017-02-13T13:38:18.277Z,3528
2017-02-13T13:39:18.961Z,3524
2017-02-13T13:40:19.681Z,3520
2017-02-13T13:41:20.371Z,3524
2017-02-13T13:42:21.085Z,3500
2017-02-13T13:43:21.817Z,3492
2017-02-13T13:44:22.504Z,3488
2017-02-13T13:45:23.216Z,3472
2017-02-13T13:46:23.922Z,3444
2017-02-13T13:47:24.640Z,3384
2017-02-13T13:48:25.378Z,3376
2017-02-13T13:49:26.080Z,3372
2017-02-13T13:50:26.775Z,3352
2017-02-13T13:51:27.493Z,3348
2017-02-13T13:52:28.216Z,3328
2017-02-13T13:53:28.947Z,3304
2017-02-13T13:54:29.721Z,3296
2017-02-13T13:55:30.486Z,3284
2017-02-13T13:56:31.200Z,3280
2017-02-13T13:57:31.910Z,3276
2017-02-13T13:58:32.820Z,3272
2017-02-13T13:59:33.546Z,3272
2017-02-13T14:00:34.318Z,3264
2017-02-13T14:01:35.048Z,3248
2017-02-13T14:02:35.779Z,3228
2017-02-13T14:03:36.510Z,3208
2017-02-13T14:04:37.238Z,3188
2017-02-13T14:05:38.020Z,3188
2017-02-13T14:06:38.796Z,3148